Time;durP1;ratioP1;P1;durP2;ratioP2;P2;SDS_P1;SDS_P2;PMS_P1;PMS_P2;Temp;Humidity;BMP_temperature;BMP_pressure;BME280_temperature;BME280_humidity;BME280_pressure;Samples;Min_cycle;Max_cycle;Signal;HPM_P1;HPM_P2
2022/04/20 00:02:16;;;;;;;2.60;2.10;;;8.60;98.00;;;;;;5034709;28;20189;-29
2022/04/20 00:04:42;;;;;;;2.63;2.20;;;8.70;98.30;;;;;;5035107;28;20171;-28
2022/04/20 00:07:09;;;;;;;3.93;2.20;;;8.60;98.30;;;;;;5034730;28;20178;-28
2022/04/20 00:09:34;;;;;;;2.27;2.07;;;8.50;98.20;;;;;;5051371;28;20288;-28
2022/04/20 00:12:00;;;;;;;2.17;1.80;;;8.50;98.50;;;;;;5051271;28;20200;-28
2022/04/20 00:14:26;;;;;;;4.37;2.10;;;8.40;98.50;;;;;;5034617;28;20188;-28
2022/04/20 00:16:52;;;;;;;3.97;2.20;;;8.50;98.60;;;;;;5051257;28;20185;-28
2022/04/20 00:19:18;;;;;;;5.07;2.37;;;8.50;98.20;;;;;;5052846;28;20193;-28
2022/04/20 00:21:44;;;;;;;2.47;2.00;;;8.50;98.30;;;;;;5054741;28;20176;-28
2022/04/20 00:24:09;;;;;;;6.53;2.13;;;8.50;98.40;;;;;;5056135;28;20172;-28
2022/04/20 00:26:35;;;;;;;4.23;1.93;;;8.30;98.40;;;;;;5038059;28;20181;-29
2022/04/20 00:29:07;;;;;;;3.33;1.80;;;8.20;98.40;;;;;;5037657;28;20284;-28
2022/04/20 00:31:36;;;;;;;6.83;2.10;;;8.20;98.90;;;;;;5037674;28;20178;-29
2022/04/20 00:34:02;;;;;;;2.37;2.17;;;8.20;98.80;;;;;;5038450;28;20174;-30
2022/04/20 00:36:28;;;;;;;3.73;2.43;;;8.10;99.00;;;;;;5038223;28;20234;-30
2022/04/20 00:38:54;;;;;;;2.63;2.20;;;8.10;99.00;;;;;;5054469;28;20573;-28
2022/04/20 00:41:20;;;;;;;2.80;2.10;;;8.00;99.50;;;;;;5054563;28;20181;-28
2022/04/20 00:43:46;;;;;;;2.80;2.20;;;8.10;99.30;;;;;;5037984;28;20187;-28
2022/04/20 00:46:12;;;;;;;4.13;2.57;;;8.00;99.50;;;;;;5054725;28;20181;-27
2022/04/20 00:48:40;;;;;;;3.63;2.40;;;8.00;99.70;;;;;;5037984;28;20216;-30
2022/04/20 00:51:06;;;;;;;3.50;2.70;;;8.10;99.90;;;;;;5037950;28;20252;-31
2022/04/20 00:53:32;;;;;;;3.77;3.00;;;8.10;99.90;;;;;;5037848;28;20177;-29
2022/04/20 00:55:59;;;;;;;9.20;3.30;;;8.20;99.90;;;;;;5037115;28;20184;-29
2022/04/20 00:58:25;;;;;;;5.73;3.20;;;8.30;99.90;;;;;;5050153;23;20237;-38
2022/04/20 01:00:52;;;;;;;3.23;2.70;;;8.30;99.90;;;;;;5034466;28;20188;-37
2022/04/20 01:03:19;;;;;;;4.30;3.20;;;8.40;99.90;;;;;;5051803;28;20191;-37
2022/04/20 01:06:10;;;;;;;7.53;3.53;;;8.50;99.90;;;;;;5041699;28;20218;-36
2022/04/20 01:09:00;;;;;;;3.60;3.10;;;8.60;99.90;;;;;;5013785;28;20283;-38
2022/04/20 01:11:51;;;;;;;5.67;3.30;;;8.60;99.90;;;;;;5026060;28;20190;-36
2022/04/20 01:14:52;;;;;;;3.47;3.17;;;8.60;99.90;;;;;;4972037;28;20192;-40
2022/04/20 01:17:37;;;;;;;3.50;3.20;;;8.50;99.90;;;;;;4989210;28;20266;-36
2022/04/20 01:20:17;;;;;;;4.03;2.80;;;8.50;99.90;;;;;;4993531;28;20274;-37
2022/04/20 01:23:12;;;;;;;4.77;3.10;;;8.50;99.90;;;;;;5008919;28;20183;-37
2022/04/20 01:26:10;;;;;;;6.17;3.43;;;8.40;99.90;;;;;;5017244;28;20214;-36
2022/04/20 01:29:03;;;;;;;3.97;3.20;;;8.30;99.90;;;;;;5021077;28;20575;-36
2022/04/20 01:31:38;;;;;;;5.83;3.43;;;8.20;99.90;;;;;;5046226;28;20194;-39
2022/04/20 01:34:17;;;;;;;3.63;3.33;;;8.00;99.90;;;;;;5031217;28;20190;-40
2022/04/20 01:36:43;;;;;;;3.97;3.17;;;8.00;99.90;;;;;;5034254;28;20240;-37
2022/04/20 01:39:09;;;;;;;4.50;3.33;;;8.00;99.90;;;;;;5027864;28;20214;-36
2022/04/20 01:41:36;;;;;;;4.83;3.53;;;8.10;99.90;;;;;;5028054;28;20237;-36
2022/04/20 01:44:02;;;;;;;4.53;3.30;;;8.10;99.90;;;;;;5028049;28;20186;-37
2022/04/20 01:46:39;;;;;;;5.23;3.57;;;8.20;99.90;;;;;;5007854;28;20598;-36
2022/04/20 01:49:25;;;;;;;4.67;3.43;;;8.20;99.90;;;;;;5005337;28;20202;-36
2022/04/20 01:52:14;;;;;;;6.13;3.73;;;8.30;99.90;;;;;;4991811;28;20187;-36
2022/04/20 01:55:17;;;;;;;4.67;3.40;;;8.20;99.90;;;;;;5017515;28;20218;-37
2022/04/20 01:57:55;;;;;;;3.63;3.33;;;8.20;99.90;;;;;;5026628;28;20216;-36
2022/04/20 02:00:47;;;;;;;4.40;3.00;;;8.20;99.90;;;;;;5043990;28;20190;-36
2022/04/20 02:03:39;;;;;;;4.93;3.27;;;8.10;99.90;;;;;;5040211;28;20576;-36
2022/04/20 02:06:11;;;;;;;3.27;2.97;;;8.00;99.90;;;;;;5011457;28;20257;-40
2022/04/20 02:08:49;;;;;;;4.23;3.30;;;8.00;99.90;;;;;;5011092;28;20290;-37
2022/04/20 02:11:27;;;;;;;4.43;3.13;;;7.80;99.90;;;;;;5027552;28;20194;-36
2022/04/20 02:14:05;;;;;;;5.10;3.53;;;7.60;99.90;;;;;;5027047;28;20211;-37
2022/04/20 02:16:32;;;;;;;5.17;3.50;;;7.50;99.90;;;;;;5011114;28;20190;-37
2022/04/20 02:19:15;;;;;;;7.03;3.43;;;7.40;99.90;;;;;;5024999;28;20202;-36
2022/04/20 02:21:52;;;;;;;3.97;2.90;;;7.30;99.90;;;;;;5026013;28;20182;-36
2022/04/20 02:24:19;;;;;;;4.20;3.40;;;7.30;99.90;;;;;;5010230;28;20215;-36
2022/04/20 02:26:45;;;;;;;4.30;3.80;;;7.40;99.90;;;;;;5027138;28;20282;-35
2022/04/20 02:29:11;;;;;;;4.80;3.07;;;7.50;99.90;;;;;;5037657;28;20221;-37
2022/04/20 02:31:37;;;;;;;3.70;3.27;;;7.60;99.90;;;;;;5030485;28;20207;-38
2022/04/20 02:34:03;;;;;;;4.53;3.30;;;7.60;99.90;;;;;;5026086;28;20642;-36
2022/04/20 02:36:29;;;;;;;4.67;3.40;;;7.40;99.90;;;;;;5027005;28;20217;-36
2022/04/20 02:38:55;;;;;;;6.20;3.30;;;7.20;99.90;;;;;;4993602;28;20221;-36
2022/04/20 02:41:21;;;;;;;4.87;3.07;;;7.10;99.90;;;;;;5027588;28;20177;-35
2022/04/20 02:43:48;;;;;;;6.20;3.23;;;7.00;99.90;;;;;;5027083;28;20194;-39
2022/04/20 02:46:14;;;;;;;3.90;3.40;;;7.00;99.90;;;;;;5027199;28;20265;-36
2022/04/20 02:48:40;;;;;;;4.10;3.70;;;7.00;99.90;;;;;;5010800;28;20361;-37
2022/04/20 02:51:06;;;;;;;4.30;3.90;;;7.00;99.90;;;;;;5027126;28;20185;-36
2022/04/20 02:53:32;;;;;;;4.07;3.50;;;7.00;99.90;;;;;;5010209;28;20178;-36
2022/04/20 02:55:58;;;;;;;4.33;3.93;;;6.90;99.90;;;;;;5027017;28;20186;-36
2022/04/20 02:58:24;;;;;;;5.10;3.40;;;6.80;99.90;;;;;;5031273;28;20219;-38
2022/04/20 03:00:56;;;;;;;4.10;3.33;;;6.80;99.90;;;;;;5025204;28;20183;-36
2022/04/20 03:03:30;;;;;;;4.27;3.47;;;6.60;99.90;;;;;;5011007;28;20182;-36
2022/04/20 03:06:03;;;;;;;5.73;3.47;;;6.70;99.90;;;;;;5025766;28;20178;-37
2022/04/20 03:08:30;;;;;;;7.17;3.70;;;6.70;99.90;;;;;;5026571;28;20207;-40
2022/04/20 03:10:57;;;;;;;4.00;3.40;;;6.60;99.90;;;;;;5010135;28;20187;-39
2022/04/20 03:13:25;;;;;;;4.83;3.40;;;6.50;99.90;;;;;;5026851;28;20254;-38
2022/04/20 03:15:51;;;;;;;4.00;3.60;;;6.50;99.90;;;;;;5010128;28;20187;-35
2022/04/20 03:18:17;;;;;;;4.47;3.33;;;6.40;99.90;;;;;;5026575;28;20224;-36
2022/04/20 03:20:43;;;;;;;4.10;3.60;;;6.30;99.90;;;;;;5009488;28;20190;-35
2022/04/20 03:23:10;;;;;;;4.17;3.47;;;6.30;99.90;;;;;;4994104;28;20183;-36
2022/04/20 03:25:37;;;;;;;4.87;3.67;;;6.20;99.90;;;;;;5026857;28;20237;-36
2022/04/20 03:28:26;;;;;;;4.43;3.80;;;6.00;99.90;;;;;;5028491;28;20226;-36
2022/04/20 03:30:52;;;;;;;4.97;3.87;;;5.80;99.90;;;;;;5042093;28;20202;-37
2022/04/20 03:33:18;;;;;;;7.37;4.13;;;5.70;99.90;;;;;;5026275;28;20217;-37
2022/04/20 03:35:44;;;;;;;5.23;3.73;;;5.70;99.90;;;;;;5010120;28;20187;-36
2022/04/20 03:38:10;;;;;;;6.53;3.53;;;5.70;99.90;;;;;;4993777;28;20207;-38
2022/04/20 03:40:36;;;;;;;4.33;3.33;;;5.80;99.90;;;;;;5026436;28;20223;-36
2022/04/20 03:43:02;;;;;;;5.13;3.40;;;5.80;99.90;;;;;;5009919;28;20259;-36
2022/04/20 03:45:28;;;;;;;6.90;3.60;;;5.90;99.90;;;;;;5009722;28;20191;-36
2022/04/20 03:47:55;;;;;;;4.67;3.50;;;5.80;99.90;;;;;;5009983;28;20783;-35
2022/04/20 03:50:24;;;;;;;5.43;3.53;;;5.80;99.90;;;;;;5010211;28;20194;-36
2022/04/20 03:52:50;;;;;;;5.53;3.40;;;5.80;99.90;;;;;;5009685;28;20767;-37
2022/04/20 03:55:17;;;;;;;6.73;3.70;;;5.70;99.90;;;;;;5029857;28;20179;-36
2022/04/20 03:57:43;;;;;;;4.10;3.20;;;5.60;99.90;;;;;;5029912;28;20207;-37
2022/04/20 04:00:11;;;;;;;4.77;3.60;;;5.40;99.90;;;;;;5048282;28;20272;-35
2022/04/20 04:02:42;;;;;;;3.90;3.43;;;5.20;99.90;;;;;;5016766;28;20184;-35
2022/04/20 04:05:16;;;;;;;5.00;3.60;;;5.10;99.90;;;;;;5030544;28;20185;-36
2022/04/20 04:07:57;;;;;;;4.90;3.87;;;5.00;99.90;;;;;;5030158;28;20297;-37
2022/04/20 04:10:32;;;;;;;4.47;3.73;;;5.00;99.90;;;;;;5029463;28;20182;-40
2022/04/20 04:12:58;;;;;;;3.53;3.17;;;5.00;99.90;;;;;;5029794;28;20258;-36
2022/04/20 04:15:25;;;;;;;4.60;3.50;;;5.10;99.90;;;;;;5014015;28;20209;-39
2022/04/20 04:17:58;;;;;;;5.67;3.73;;;5.20;99.90;;;;;;5029700;28;20231;-36
2022/04/20 04:20:27;;;;;;;4.73;3.70;;;5.10;99.90;;;;;;5012613;28;20238;-36
2022/04/20 04:22:54;;;;;;;7.07;3.97;;;5.20;99.90;;;;;;5029772;28;20325;-36
2022/04/20 04:25:30;;;;;;;5.33;3.80;;;5.10;99.90;;;;;;5013727;28;20183;-36
2022/04/20 04:27:56;;;;;;;6.43;3.73;;;5.10;99.90;;;;;;5013835;28;20207;-35
2022/04/20 04:30:24;;;;;;;4.90;3.53;;;5.20;99.90;;;;;;5037842;28;20186;-38
2022/04/20 04:32:57;;;;;;;4.60;3.43;;;5.30;99.90;;;;;;5029780;28;20258;-36
2022/04/20 04:35:24;;;;;;;3.77;3.13;;;5.30;99.90;;;;;;5029283;28;20207;-36
2022/04/20 04:37:50;;;;;;;5.57;3.60;;;5.30;99.90;;;;;;5012802;28;20666;-36
2022/04/20 04:40:20;;;;;;;4.70;3.50;;;5.20;99.90;;;;;;5012907;28;20188;-36
2022/04/20 04:42:47;;;;;;;6.37;3.73;;;5.20;99.90;;;;;;5029558;28;20179;-39
2022/04/20 04:50:47;;;;;;;4.70;3.80;;;5.20;99.90;;;;;;5029313;28;20184;-37
2022/04/20 04:53:13;;;;;;;4.07;3.50;;;5.10;99.90;;;;;;5029024;28;20188;-36
2022/04/20 04:55:39;;;;;;;5.03;3.40;;;5.10;99.90;;;;;;5029442;28;20206;-36
2022/04/20 04:58:06;;;;;;;4.03;3.63;;;5.00;99.90;;;;;;5030633;28;20211;-35
2022/04/20 05:00:32;;;;;;;5.80;4.10;;;5.00;99.90;;;;;;5032219;28;20179;-36
2022/04/20 05:03:16;;;;;;;4.30;3.30;;;4.90;99.90;;;;;;5032746;28;20224;-35
2022/04/20 05:05:44;;;;;;;5.53;3.70;;;4.80;99.90;;;;;;5049130;28;20175;-37
2022/04/20 05:08:10;;;;;;;5.17;3.87;;;4.80;99.90;;;;;;5043866;28;20195;-36
2022/04/20 05:10:39;;;;;;;4.57;3.90;;;4.80;99.90;;;;;;5028588;28;20183;-36
2022/04/20 05:13:07;;;;;;;7.17;3.70;;;4.80;99.90;;;;;;5029041;28;20191;-35
2022/04/20 05:15:34;;;;;;;4.20;3.80;;;4.80;99.90;;;;;;5012836;28;20191;-36
2022/04/20 05:18:02;;;;;;;3.90;3.50;;;4.80;99.90;;;;;;5012211;28;20206;-36
2022/04/20 05:20:28;;;;;;;4.90;3.63;;;5.00;99.90;;;;;;5028700;28;20221;-36
2022/04/20 05:22:56;;;;;;;5.83;3.73;;;5.00;99.90;;;;;;5028977;28;20176;-37
2022/04/20 05:25:25;;;;;;;6.50;4.27;;;5.20;99.90;;;;;;5012123;28;20180;-36
2022/04/20 05:27:51;;;;;;;5.20;4.10;;;5.20;99.90;;;;;;5028391;28;20285;-36
2022/04/20 05:30:23;;;;;;;6.13;3.73;;;5.40;99.90;;;;;;5008055;28;20230;-36
2022/04/20 05:32:49;;;;;;;6.57;4.20;;;5.50;99.90;;;;;;4992645;28;20176;-36
2022/04/20 05:35:19;;;;;;;5.63;4.20;;;5.60;99.90;;;;;;5010554;28;20215;-39
2022/04/20 05:43:39;;;;;;;6.43;4.10;;;6.10;99.90;;;;;;5012211;28;20191;-36
2022/04/20 05:46:05;;;;;;;6.63;3.83;;;6.30;99.90;;;;;;5011674;28;20190;-36
2022/04/20 05:48:54;;;;;;;5.47;4.33;;;6.40;99.90;;;;;;5005034;28;20259;-36
2022/04/20 05:51:20;;;;;;;5.00;4.20;;;6.50;99.90;;;;;;5008911;28;20189;-36
2022/04/20 05:53:46;;;;;;;5.63;3.60;;;6.60;99.90;;;;;;5008553;28;20272;-36
2022/04/20 05:56:13;;;;;;;7.63;4.20;;;6.70;99.90;;;;;;4992221;28;20650;-37
2022/04/20 05:58:44;;;;;;;8.37;3.87;;;6.80;99.90;;;;;;5031207;28;20257;-36
2022/04/20 06:01:14;;;;;;;10.67;4.10;;;6.90;99.90;;;;;;5047491;28;20179;-36
2022/04/20 06:04:04;;;;;;;5.33;4.13;;;6.80;99.90;;;;;;5044710;28;20263;-40
2022/04/20 06:06:36;;;;;;;7.27;4.10;;;6.90;99.90;;;;;;5046782;28;20186;-38
2022/04/20 06:09:09;;;;;;;6.83;4.87;;;6.90;99.90;;;;;;5006710;28;20207;-36
2022/04/20 06:11:53;;;;;;;7.40;4.70;;;7.00;99.90;;;;;;5009008;28;20184;-36
2022/04/20 06:14:24;;;;;;;4.70;4.03;;;7.10;99.90;;;;;;4976185;28;20222;-37
2022/04/20 06:16:59;;;;;;;7.37;4.40;;;7.20;99.90;;;;;;5009836;28;20185;-35
2022/04/20 06:19:33;;;;;;;6.33;3.73;;;7.30;99.90;;;;;;5027402;28;20214;-36
2022/04/20 06:22:06;;;;;;;4.93;3.93;;;7.50;99.90;;;;;;5027940;28;20188;-35
2022/04/20 06:25:02;;;;;;;5.67;4.17;;;7.50;99.90;;;;;;4987854;28;20180;-35
2022/04/20 06:27:40;;;;;;;5.17;3.90;;;7.70;99.90;;;;;;5024687;28;20181;-35
2022/04/20 06:30:27;;;;;;;7.80;5.23;;;7.70;99.90;;;;;;5033167;28;20199;-34
2022/04/20 06:33:09;;;;;;;7.00;4.20;;;7.90;99.90;;;;;;5048339;28;20260;-34
2022/04/20 06:35:53;;;;;;;4.60;3.60;;;8.00;99.90;;;;;;5026980;28;20193;-34
2022/04/20 06:38:35;;;;;;;4.50;3.50;;;8.10;99.90;;;;;;5026683;28;20303;-35
2022/04/20 06:41:00;;;;;;;4.13;3.40;;;8.30;99.90;;;;;;5027462;28;20268;-34
2022/04/20 06:43:40;;;;;;;5.73;4.00;;;8.50;99.90;;;;;;5010913;28;20282;-35
2022/04/20 06:46:24;;;;;;;5.47;3.80;;;8.40;99.90;;;;;;5027277;28;20187;-34
2022/04/20 06:48:52;;;;;;;4.80;3.83;;;8.40;99.90;;;;;;5010307;28;20225;-35
2022/04/20 06:58:31;;;;;;;4.37;3.63;;;8.40;99.90;;;;;;5010849;28;20720;-36
2022/04/20 07:00:06;;;;;;;5.80;3.50;;;8.60;99.90;;;;;;5028077;28;20193;-35
2022/04/20 07:02:59;;;;;;;3.63;3.17;;;8.80;99.90;;;;;;5031743;28;20189;-34
2022/04/20 07:05:45;;;;;;;3.47;2.97;;;9.00;99.90;;;;;;5025323;28;20185;-34
2022/04/20 07:08:32;;;;;;;4.30;2.70;;;9.30;99.90;;;;;;5026884;28;20210;-34
2022/04/20 07:11:28;;;;;;;3.90;2.67;;;9.60;99.90;;;;;;5014959;28;20210;-36
2022/04/20 07:13:55;;;;;;;3.40;2.60;;;9.70;99.30;;;;;;5026136;28;20286;-37
2022/04/20 07:16:22;;;;;;;3.97;2.70;;;9.80;98.80;;;;;;5026338;28;20217;-37
2022/04/20 07:18:58;;;;;;;4.10;2.57;;;9.90;99.00;;;;;;5010013;28;20217;-36
2022/04/20 07:21:47;;;;;;;8.00;2.73;;;10.10;99.40;;;;;;5012475;28;20182;-37
2022/04/20 07:24:28;;;;;;;4.13;2.70;;;10.20;98.90;;;;;;5025972;28;20171;-39
2022/04/20 07:27:00;;;;;;;2.70;2.17;;;10.40;98.00;;;;;;5025981;28;20176;-37
2022/04/20 07:29:40;;;;;;;5.47;2.93;;;10.50;97.40;;;;;;5026990;28;20241;-39
2022/04/20 07:32:29;;;;;;;4.57;2.60;;;10.70;97.90;;;;;;5043248;28;20174;-37
2022/04/20 07:35:16;;;;;;;3.83;2.87;;;10.80;97.50;;;;;;5014416;28;20175;-36
2022/04/20 07:38:15;;;;;;;3.80;2.70;;;10.90;98.20;;;;;;5004156;28;20333;-38
2022/04/20 07:40:59;;;;;;;4.27;3.20;;;10.90;97.00;;;;;;5028071;28;20189;-37
2022/04/20 07:43:49;;;;;;;4.63;2.87;;;11.00;97.30;;;;;;5006461;28;20195;-37
2022/04/20 07:46:33;;;;;;;3.33;2.60;;;11.20;97.70;;;;;;5028326;28;20190;-37
2022/04/20 07:52:24;;;;;;;3.87;2.53;;;11.50;96.70;;;;;;5014620;28;20171;-37
2022/04/20 07:55:12;;;;;;;3.80;2.97;;;11.60;97.20;;;;;;5014780;28;20758;-37
2022/04/20 07:57:58;;;;;;;4.20;2.70;;;11.60;96.90;;;;;;5029811;28;20215;-37
2022/04/20 08:00:40;;;;;;;3.43;2.53;;;11.80;96.80;;;;;;5048162;28;20182;-37
2022/04/20 08:03:29;;;;;;;4.67;2.90;;;11.90;96.30;;;;;;5026821;28;20253;-37
2022/04/20 08:05:56;;;;;;;3.10;2.80;;;12.10;96.00;;;;;;5013434;28;20420;-38
2022/04/20 08:08:25;;;;;;;3.77;2.93;;;12.20;95.60;;;;;;5030013;28;20258;-41
2022/04/20 08:10:54;;;;;;;3.17;2.87;;;12.30;95.60;;;;;;5029663;28;20669;-37
2022/04/20 08:16:12;;;;;;;3.27;2.77;;;12.60;94.90;;;;;;5013293;28;20380;-37
2022/04/20 08:18:57;;;;;;;5.13;3.00;;;12.60;95.20;;;;;;5026919;28;20307;-38
2022/04/20 08:21:51;;;;;;;3.43;3.13;;;12.60;95.00;;;;;;5013655;28;20183;-37
2022/04/20 08:24:17;;;;;;;3.20;2.90;;;12.70;95.70;;;;;;5029598;28;20234;-40
2022/04/20 08:26:43;;;;;;;3.23;2.90;;;12.80;95.10;;;;;;5029082;28;20271;-38
2022/04/20 08:29:10;;;;;;;4.63;2.87;;;13.00;95.60;;;;;;5039893;28;20295;-41
2022/04/20 08:31:37;;;;;;;4.50;3.00;;;13.10;94.70;;;;;;5049443;28;20192;-37
2022/04/20 08:34:03;;;;;;;3.90;3.03;;;13.30;94.50;;;;;;5018160;28;20248;-38
2022/04/20 08:36:29;;;;;;;5.30;3.60;;;13.30;94.20;;;;;;5009693;28;20191;-37
2022/04/20 08:38:54;;;;;;;3.10;2.77;;;13.40;94.30;;;;;;5009701;28;20222;-37
2022/04/20 08:41:20;;;;;;;3.57;2.90;;;13.40;94.30;;;;;;5011096;28;20183;-37
2022/04/20 08:43:46;;;;;;;3.00;2.80;;;13.40;94.00;;;;;;4996128;28;20221;-37
2022/04/20 08:46:15;;;;;;;4.60;3.07;;;13.60;95.80;;;;;;5029123;28;20206;-37
2022/04/20 08:48:41;;;;;;;4.47;3.33;;;13.90;94.90;;;;;;5012671;28;20229;-38
2022/04/20 08:51:07;;;;;;;3.30;2.83;;;13.90;94.80;;;;;;5012376;28;20208;-37
2022/04/20 08:53:34;;;;;;;5.37;2.93;;;14.10;94.10;;;;;;5028769;28;20190;-37
2022/04/20 08:58:47;;;;;;;4.37;3.10;;;14.40;94.20;;;;;;5019302;28;20305;-38
2022/04/20 09:01:15;;;;;;;4.77;2.90;;;14.60;94.00;;;;;;5032033;28;20335;-37
2022/04/20 09:03:44;;;;;;;3.07;2.57;;;14.60;93.30;;;;;;5009081;28;20191;-38
2022/04/20 09:06:10;;;;;;;4.30;2.80;;;14.60;94.20;;;;;;4976622;28;20659;-37
2022/04/20 09:08:38;;;;;;;3.03;2.73;;;14.30;93.20;;;;;;4976159;28;20208;-37
2022/04/20 09:11:04;;;;;;;3.20;2.90;;;14.50;94.20;;;;;;5019712;28;20201;-37
2022/04/20 09:13:35;;;;;;;2.80;2.50;;;14.60;92.40;;;;;;5013489;28;20183;-37
2022/04/20 09:16:06;;;;;;;3.40;2.77;;;14.70;92.60;;;;;;5012079;28;20187;-37
2022/04/20 09:18:33;;;;;;;3.50;3.20;;;14.80;91.60;;;;;;5011212;28;20199;-37
2022/04/20 09:21:10;;;;;;;3.17;2.83;;;15.00;92.90;;;;;;5029257;28;20171;-37
2022/04/20 09:23:36;;;;;;;4.20;2.60;;;14.90;91.30;;;;;;5020263;28;20168;-36
2022/04/20 09:26:11;;;;;;;4.10;3.10;;;14.90;91.80;;;;;;5021849;28;20677;-38
2022/04/20 09:28:39;;;;;;;3.50;3.20;;;14.90;92.90;;;;;;5039049;28;20267;-38
2022/04/20 09:31:05;;;;;;;5.27;3.07;;;14.90;92.20;;;;;;5037624;28;20178;-37
2022/04/20 09:33:53;;;;;;;4.03;2.87;;;15.10;92.10;;;;;;5038566;28;20233;-37
2022/04/20 09:36:40;;;;;;;3.43;2.60;;;14.90;91.30;;;;;;5022621;28;20256;-37
2022/04/20 09:39:06;;;;;;;3.67;2.93;;;15.20;92.60;;;;;;5020923;28;20214;-39
2022/04/20 09:41:32;;;;;;;5.73;3.07;;;15.00;91.30;;;;;;5038209;28;20174;-37
2022/04/20 09:44:09;;;;;;;4.07;2.87;;;15.10;91.60;;;;;;5036106;28;20243;-39
2022/04/20 09:49:58;;;;;;;3.10;2.77;;;15.30;91.30;;;;;;5018010;28;20208;-38
2022/04/20 09:52:34;;;;;;;4.33;3.20;;;15.40;90.60;;;;;;5034349;28;20179;-40
2022/04/20 09:55:00;;;;;;;3.70;2.90;;;15.40;90.30;;;;;;5028905;28;20186;-41
2022/04/20 09:57:26;;;;;;;3.93;2.60;;;15.50;91.00;;;;;;5049232;28;20206;-38
2022/04/20 10:00:43;;;;;;;4.13;2.97;;;15.60;91.20;;;;;;5048833;28;20371;-38
2022/04/20 10:03:10;;;;;;;2.87;2.67;;;15.80;90.20;;;;;;5049654;28;20163;-38
2022/04/20 10:05:39;;;;;;;3.63;3.00;;;15.80;90.40;;;;;;5049211;28;20186;-37
2022/04/20 10:08:06;;;;;;;2.90;2.20;;;15.80;90.30;;;;;;5032934;28;20205;-38
2022/04/20 10:10:35;;;;;;;3.67;3.13;;;15.90;90.30;;;;;;5049768;28;20258;-38
2022/04/20 10:13:03;;;;;;;3.60;3.10;;;15.90;89.20;;;;;;5049570;28;20182;-37
2022/04/20 10:18:30;;;;;;;2.60;2.40;;;15.70;86.60;;;;;;5032956;28;20221;-35
2022/04/20 10:21:00;;;;;;;4.03;2.80;;;15.70;87.40;;;;;;4993162;28;20199;-35
2022/04/20 10:23:29;;;;;;;3.37;3.00;;;15.80;88.20;;;;;;5017931;28;20175;-35
2022/04/20 10:25:57;;;;;;;3.50;3.00;;;15.90;87.20;;;;;;5047678;28;20720;-35
2022/04/20 10:28:30;;;;;;;4.97;3.30;;;15.90;89.60;;;;;;5031420;28;20206;-35
2022/04/20 10:31:31;;;;;;;12.57;5.10;;;16.00;89.50;;;;;;5032388;28;20183;-35
2022/04/20 10:34:02;;;;;;;3.50;3.20;;;16.20;89.10;;;;;;5048399;28;20218;-35
2022/04/20 10:36:37;;;;;;;3.77;3.37;;;16.10;88.20;;;;;;5048128;28;20178;-35
2022/04/20 10:39:23;;;;;;;5.33;3.40;;;16.30;88.90;;;;;;5047809;28;20217;-35
2022/04/20 10:42:12;;;;;;;4.80;3.00;;;16.40;88.30;;;;;;5016319;28;20214;-38
2022/04/20 10:45:06;;;;;;;3.50;3.20;;;16.30;88.70;;;;;;5032312;28;20181;-35
2022/04/20 10:47:36;;;;;;;5.17;3.90;;;15.90;90.50;;;;;;5049226;28;20166;-35
2022/04/20 10:50:18;;;;;;;3.57;3.27;;;16.10;90.30;;;;;;5048735;28;20178;-35
2022/04/20 10:52:53;;;;;;;4.47;3.70;;;16.30;89.50;;;;;;5048743;28;20178;-35
2022/04/20 10:55:43;;;;;;;4.23;3.63;;;16.00;87.40;;;;;;5048255;28;20170;-35
2022/04/20 10:58:22;;;;;;;3.53;3.23;;;15.30;90.10;;;;;;5037344;28;20238;-36
2022/04/20 11:01:12;;;;;;;3.70;3.40;;;15.70;90.50;;;;;;5041241;28;20232;-35
2022/04/20 11:03:57;;;;;;;5.03;3.43;;;16.10;91.00;;;;;;5024728;28;20178;-35
2022/04/20 11:06:28;;;;;;;4.60;3.63;;;16.40;89.40;;;;;;5018127;28;20178;-36
2022/04/20 11:09:01;;;;;;;3.70;3.40;;;16.60;87.90;;;;;;5008335;28;20211;-35
2022/04/20 11:21:03;;;;;;;4.50;3.37;;;17.20;86.10;;;;;;4998348;28;20286;-36
2022/04/20 11:24:07;;;;;;;4.20;3.40;;;17.20;85.10;;;;;;5006867;28;20178;-38
2022/04/20 11:26:48;;;;;;;3.00;2.73;;;16.90;87.90;;;;;;5024745;28;20186;-36
2022/04/20 11:29:24;;;;;;;6.17;3.50;;;16.90;86.30;;;;;;5025278;28;20211;-37
2022/04/20 11:31:58;;;;;;;3.60;3.30;;;16.80;85.20;;;;;;5012562;28;20180;-36
2022/04/20 11:34:45;;;;;;;3.70;3.33;;;17.00;84.70;;;;;;5018671;28;20187;-35
2022/04/20 11:37:11;;;;;;;4.33;2.90;;;17.20;84.90;;;;;;5024950;28;20198;-35
2022/04/20 11:39:37;;;;;;;5.85;3.75;;;17.40;84.60;;;;;;5024473;28;20218;-36
2022/04/20 11:42:04;;;;;;;3.50;3.20;;;17.50;81.40;;;;;;4998365;28;20270;-35
2022/04/20 11:44:34;;;;;;;3.90;3.28;;;17.60;83.60;;;;;;4995650;28;20174;-37
2022/04/20 11:47:09;;;;;;;4.63;3.47;;;17.80;83.00;;;;;;5007984;28;20236;-35
2022/04/20 11:49:40;;;;;;;4.93;3.45;;;17.60;79.80;;;;;;5024030;28;20203;-39
2022/04/20 11:52:14;;;;;;;4.85;3.30;;;17.50;84.60;;;;;;5024313;28;20201;-35
2022/04/20 11:54:46;;;;;;;3.75;3.40;;;17.70;80.90;;;;;;5008386;28;20182;-36
2022/04/20 11:57:18;;;;;;;42.75;27.95;;;17.90;79.80;;;;;;5023155;28;20256;-35
2022/04/20 11:59:46;;;;;;;4.75;3.42;;;17.80;79.80;;;;;;4998922;28;20218;-35
2022/04/20 12:02:13;;;;;;;4.10;3.70;;;17.20;84.80;;;;;;5024747;28;20228;-37
2022/04/20 12:04:40;;;;;;;2.90;2.70;;;17.40;84.40;;;;;;5015793;28;20206;-35
2022/04/20 12:07:07;;;;;;;3.28;3.00;;;17.80;83.70;;;;;;5023847;28;20189;-37
2022/04/20 12:09:36;;;;;;;3.72;2.92;;;18.20;80.50;;;;;;5007813;28;20211;-37
2022/04/20 12:12:07;;;;;;;5.38;3.30;;;18.00;80.70;;;;;;5017227;28;20263;-38
2022/04/20 12:14:37;;;;;;;4.03;3.72;;;18.20;78.80;;;;;;5019003;28;20179;-35
2022/04/20 12:17:22;;;;;;;3.75;3.45;;;17.90;79.00;;;;;;5020224;28;20193;-39
2022/04/20 12:19:50;;;;;;;3.92;3.45;;;18.00;81.20;;;;;;5035937;28;20257;-36
2022/04/20 12:22:18;;;;;;;4.07;2.97;;;18.00;80.30;;;;;;5029433;28;20179;-37
2022/04/20 12:24:45;;;;;;;3.00;2.70;;;18.20;79.20;;;;;;5013590;28;20211;-35
2022/04/20 12:27:21;;;;;;;4.20;3.00;;;18.30;77.60;;;;;;5029785;28;20180;-37
2022/04/20 12:29:54;;;;;;;3.97;3.20;;;18.70;78.60;;;;;;5031415;28;20206;-35
2022/04/20 12:32:33;;;;;;;3.80;3.40;;;18.40;76.90;;;;;;5031410;28;20234;-35
2022/04/20 12:35:01;;;;;;;4.15;3.33;;;17.80;76.30;;;;;;5029315;28;20207;-35
2022/04/20 12:37:30;;;;;;;7.38;3.70;;;18.00;78.70;;;;;;5029371;28;20167;-35
2022/04/20 12:40:19;;;;;;;4.38;3.20;;;18.30;80.50;;;;;;5029539;28;20223;-35
2022/04/20 12:43:05;;;;;;;4.05;3.15;;;18.60;75.30;;;;;;5013050;28;20187;-36
2022/04/20 12:45:32;;;;;;;3.55;3.17;;;18.40;77.80;;;;;;5012806;28;20267;-38
2022/04/20 12:48:06;;;;;;;4.07;3.10;;;18.60;77.10;;;;;;5012795;28;20199;-38
2022/04/20 12:50:39;;;;;;;3.58;3.22;;;18.60;79.30;;;;;;5013994;28;20190;-35
2022/04/20 12:53:06;;;;;;;4.55;3.42;;;18.60;80.00;;;;;;5012782;28;20245;-36
2022/04/20 12:55:40;;;;;;;3.55;3.25;;;18.90;78.40;;;;;;5012254;28;20190;-37
2022/04/20 13:03:43;;;;;;;3.85;3.03;;;19.20;75.80;;;;;;5032056;28;20179;-36
2022/04/20 13:06:10;;;;;;;4.25;3.00;;;19.30;74.70;;;;;;5033375;28;20178;-38
2022/04/20 13:08:41;;;;;;;3.70;3.25;;;19.10;76.20;;;;;;5048743;28;20574;-38
2022/04/20 13:11:10;;;;;;;4.10;3.08;;;19.20;76.10;;;;;;5031976;28;20188;-38
2022/04/20 13:13:37;;;;;;;4.05;3.17;;;18.40;73.40;;;;;;5034857;28;20195;-38
2022/04/20 13:16:08;;;;;;;4.97;3.10;;;18.50;74.20;;;;;;5012363;28;20184;-38
2022/04/20 13:18:35;;;;;;;3.38;3.10;;;18.50;75.40;;;;;;5028180;28;20215;-36
2022/04/20 13:21:01;;;;;;;3.33;3.03;;;18.90;74.80;;;;;;5011894;28;20211;-36
2022/04/20 13:23:27;;;;;;;3.65;3.25;;;19.10;73.00;;;;;;5012636;28;20210;-36
2022/04/20 13:28:37;;;;;;;2.97;2.70;;;19.10;76.00;;;;;;5034371;28;20252;-36
2022/04/20 13:31:03;;;;;;;3.90;3.25;;;19.50;76.20;;;;;;5047715;28;20214;-36
2022/04/20 13:33:30;;;;;;;3.90;2.92;;;19.80;73.00;;;;;;5048666;28;20183;-35
2022/04/20 13:35:56;;;;;;;3.88;2.90;;;19.30;73.40;;;;;;5048155;28;20191;-39
2022/04/20 13:38:23;;;;;;;3.20;2.90;;;19.00;73.60;;;;;;5049059;28;20214;-36
2022/04/20 13:40:49;;;;;;;5.07;2.97;;;19.00;72.60;;;;;;5047895;28;20174;-37
2022/04/20 13:43:15;;;;;;;2.85;2.65;;;19.50;73.10;;;;;;5021837;28;20175;-35
2022/04/20 13:45:41;;;;;;;4.30;3.00;;;19.80;72.90;;;;;;5011230;28;20180;-36
2022/04/20 13:48:07;;;;;;;2.70;2.45;;;20.10;72.10;;;;;;5011621;28;20207;-35
2022/04/20 13:50:33;;;;;;;4.05;3.15;;;20.30;71.00;;;;;;5011378;28;20194;-38
2022/04/20 13:53:00;;;;;;;4.28;2.70;;;20.50;70.50;;;;;;5028043;28;20257;-39
2022/04/20 13:55:26;;;;;;;4.50;2.65;;;20.30;71.10;;;;;;5011364;28;20184;-35
2022/04/20 13:57:52;;;;;;;3.25;2.88;;;20.60;70.30;;;;;;5010989;28;20783;-35
2022/04/20 14:00:18;;;;;;;3.45;2.80;;;20.60;65.80;;;;;;5047597;28;20178;-37
2022/04/20 14:02:45;;;;;;;3.40;2.72;;;20.40;67.50;;;;;;5048003;28;20171;-36
2022/04/20 14:05:11;;;;;;;4.70;2.95;;;20.10;70.50;;;;;;5047528;28;20185;-38
2022/04/20 14:07:38;;;;;;;3.00;2.80;;;20.30;72.10;;;;;;5030819;28;20265;-36
2022/04/20 14:10:10;;;;;;;3.60;2.90;;;20.50;70.40;;;;;;5047229;28;20175;-39
2022/04/20 14:12:37;;;;;;;6.65;3.20;;;20.80;69.60;;;;;;5041585;28;20191;-36